1964 Severe Tropical Cyclone FLORA (1964336S10135)


IBTrACS version v04r00. Visit IBTrACS website for data access.
Please direct all questions to the IBTrACS Q and A forum

Storm track - Intensity - Wind Radii - Intensity Data - Source Data - All data

Summary Information

Storm ID 1964336S10135
Start Nov 30 17Z
Landfall Dec 1 20Z, Dec 2 15Z, Dec 5 12Z
Max Intensity 65 kt (Dec 5 12Z), 992 mb (Dec 5 00Z)
End Dec 9 00Z
ATCF IDs ,SH041965
Track status Best track data.

Storm track plot

Map of storm track

Intensity plots

Map of storm track

Radial wind information

No radial wind information for this storm


Position and Intensity Table

BASIN ISO_TIME_________ NATURE LAT LON WMO PRES USA WIND BOM PRES DS824 WIND TD9636 WIND NEUMANN WIND NEUMANN PRES
degrees north degrees east mb kts mb kts kts kts mb
SI 1964-11-30 17:00:00 NR -10.30 134.70 5
SI 18:00:00 TS -10.38 134.62 5 5 6
SI 21:00:00 TS -10.59 134.47 12 12 11
SI 23:30:00 TS -10.74 134.34 1002 18 1002 18 15
SI 1964-12-01 00:00:00 TS -10.76 134.34 20 1002 20 16 25 1002
SI 02:30:00 TS -10.86 134.17 1002 22 1002 22 20 25 1002
SI 03:00:00 TS -10.88 134.14 22 1002 22 21 25 1002
SI 05:00:00 TS -10.97 134.02 24 1002 24 25 25 1002
SI 05:30:00 TS -10.99 133.99 1002 24 1002 24 25 25 1002
SI 06:00:00 TS -11.01 133.95 25 1002 25 25 25 1002
SI 08:30:00 TS -11.10 133.78 1002 27 1002 27 26 25 1001
SI 09:00:00 TS -11.12 133.75 27 1001 27 26 25 1001
SI 11:30:00 TS -11.20 133.59 1001 29 1001 29 28 25 1001
SI 12:00:00 TS -11.21 133.54 30 1000 30 28 25 1001
SI 14:30:00 TS -11.28 133.32 1000 30 1000 30 29 27 1000
SI 15:00:00 TS -11.29 133.29 30 1000 30 29 27 1000
SI 17:00:00 TS -11.33 133.17 30 1000 30 31 29 1000
SI 17:30:00 TS -11.34 133.13 1000 30 1000 30 30 29 1000
SI 18:00:00 TS -11.36 133.10 30 1000 30 30 30 1000
SI 20:30:00 TS -11.44 132.93 1000 27 1000 27 29 30 1000
SI 21:00:00 TS -11.45 132.90 27 1000 27 29 30 1000
SI 23:30:00 TS -11.54 132.72 1000 25 1000 25 27 30 1000
SI 1964-12-02 00:00:00 TS -11.56 132.69 25 1000 25 27 30 1000
SI 02:30:00 TS -11.65 132.49 1000 25 1000 25 26 32 999
SI 03:00:00 TS -11.67 132.44 25 999 25 26 32 999
SI 05:00:00 TS -11.76 132.27 25 998 25 25 34 998
SI 05:30:00 TS -11.79 132.23 998 25 998 25 25 34 998
SI 06:00:00 TS -11.81 132.20 25 997 25 25 35 998
SI 08:30:00 TS -11.93 132.06 997 25 997 25 25 37 996
SI 09:00:00 TS -11.95 132.04 25 996 25 25 37 996
SI 11:30:00 TS -12.07 131.93 995 25 995 25 25 39 995
SI 12:00:00 TS -12.09 131.90 25 995 25 25 40 995
SI 13:00:00 TS -12.15 131.83 995 25 995 25 25 39 995
SI 14:30:00 TS -12.24 131.77 996 25 996 25 25 37 995
SI 15:00:00 TS -12.27 131.75 25 996 25 25 37 996
SI 17:00:00 TS -12.38 131.67 25 996 25 25 35 996
SI 17:30:00 TS -12.41 131.66 997 25 997 25 24 35 996
SI 18:00:00 TS -12.45 131.65 25 997 25 24 35 997
SI 20:30:00 TS -12.70 131.63 998 22 998 22 22 35 997
SI 21:00:00 TS -12.75 131.63 22 998 22 21 35 997
SI 23:30:00 TS -13.01 131.68 998 20 998 20 19 35 997
SI 1964-12-03 00:00:00 TS -13.05 131.70 20 998 20 19 35 998
SI 02:30:00 TS -13.23 131.89 998 17 998 17 17 35 998
SI 03:00:00 TS -13.27 131.94 17 998 17 16 35 998
SI 05:00:00 TS -13.41 132.15 15 998 15 15 35 998
SI 05:30:00 TS -13.44 132.21 998 15 998 15 15 35 998
SI 06:00:00 TS -13.46 132.25 15 998 15 15 35 998
SI 08:30:00 TS -13.56 132.43 998 15 998 15 16 35 998
SI 09:00:00 TS -13.58 132.47 15 998 15 16 35 998
SI 11:30:00 TS -13.64 132.66 998 15 998 15 17 35 998
SI 12:00:00 TS -13.66 132.71 15 998 15 17 35 998
SI 14:30:00 TS -13.71 132.94 998 17 998 17 18 35 998
SI 15:00:00 TS -13.72 132.99 17 998 17 18 35 998
SI 17:00:00 TS -13.74 133.19 19 998 19 19 35 998
SI 17:30:00 TS -13.75 133.25 998 19 998 19 19 35 998
SI 18:00:00 TS -13.75 133.32 20 998 20 20 35 998
SI 20:30:00 TS -13.78 133.71 998 24 998 24 24 35 998
SI 21:00:00 TS -13.78 133.79 25 998 25 24 35 998
SI 23:30:00 TS -13.84 134.19 998 29 998 29 28 35 998
SI 1964-12-04 00:00:00 TS -13.86 134.27 30 998 30 29 35 998
SI 02:30:00 TS -14.01 134.63 998 32 998 32 33 35 998
SI 03:00:00 TS -14.05 134.70 32 998 32 33 35 998
SI 05:00:00 TS -14.21 134.96 34 998 34 37 35 998
SP 05:30:00 TS -14.26 135.03 998 34 998 34 36 35 998
SP 06:00:00 TS -14.30 135.11 35 997 35 36 35 998
SP 08:30:00 TS -14.53 135.54 996 35 996 35 35 37 996
SP 09:00:00 TS -14.57 135.63 35 995 35 35 37 996
SP 12:00:00 TS -14.86 136.18 35 994 35 33 40 995
SP 14:30:00 TS -15.11 136.67 994 32 994 32 32 40 994
SP 15:00:00 TS -15.15 136.77 32 993 32 32 40 994
SP 17:00:00 TS -15.34 137.19 30 993 30 31 40 994
SP 18:00:00 TS -15.43 137.41 30 993 30 31 40 994
SP 21:00:00 TS -15.67 138.10 32 993 32 33 40 993
SP 23:00:00 TS -15.82 138.58 993 34 993 34 35 40 993
SP 1964-12-05 00:00:00 TS -15.89 138.82 35 992 35 36 40 993
SP 03:00:00 TS -16.09 139.52 37 992 37 38 40 993
SP 05:00:00 TS -16.22 139.97 39 992 39 40 40 993
SP 06:00:00 TS -16.28 140.19 40 992 40 42 40 993
SP 09:00:00 TS -16.42 140.82 52 992 52 51 42 992
SP 10:00:00 TS -16.47 141.02 992 56 992 56 53 43 992
SP 11:00:00 TS -16.53 141.21 992 60 992 60 56 44 992
SP 12:00:00 TS -16.60 141.39 65 992 65 59 45 992
SP 14:00:00 TS -16.82 141.70 994 61 994 61 65 43 993
SP 15:00:00 TS -16.96 141.83 60 994 60 61 42 993
SP 16:00:00 TS -17.10 141.98 58 994 58 58 41 993
SP 17:00:00 TS -17.24 142.17 995 56 995 56 55 40 994
SP 18:00:00 TS -17.35 142.35 55 995 55 53 40 995
SP 20:00:00 TS -17.48 142.68 996 49 996 49 49 38 995
SP 21:00:00 TS -17.52 142.88 47 996 47 47 37 995
SP 23:00:00 TS -17.56 143.29 996 42 996 42 43 35 995
SP 1964-12-06 00:00:00 TS -17.55 143.47 40 996 40 41 35 996
SP 02:00:00 TS -17.54 143.80 998 36 998 36 37 35 996
SP 03:00:00 TS -17.53 143.97 35 997 35 35 35 996
SP 05:00:00 TS -17.54 144.34 31 997 31 31 35 996
SP 06:00:00 TS -17.57 144.56 30 996 30 32 35 997
SP 08:00:00 TS -17.65 145.05 996 33 996 33 34 35 996
SP 09:00:00 TS -17.70 145.31 35 996 35 35 35 996
SP 12:00:00 TS -17.88 146.09 996 40 996 40 38 35 996
SP 15:00:00 TS -18.06 146.74 42 996 42 41 35 996
SP 17:00:00 TS -18.17 147.11 44 996 44 44 35 996
SP 18:00:00 TS -18.23 147.28 45 996 45 43 35 996
SP 21:00:00 TS -18.40 147.70 42 996 42 41 35 996
SP 23:00:00 TS -18.51 147.94 996 40 996 40 40 35 996
SP 1964-12-07 00:00:00 TS -18.55 148.05 40 996 40 39 35 996
SP 03:00:00 TS -18.66 148.39 37 996 37 38 35 996
SP 05:00:00 TS -18.73 148.59 35 997 35 37 35 996
SP 06:00:00 TS -18.76 148.69 35 997 35 37 35 997
SP 09:00:00 TS -18.86 148.98 37 997 37 39 35 997
SP 11:00:00 TS -18.92 149.15 998 39 998 39 40 35 997
SP 12:00:00 TS -18.95 149.24 40 998 40 41 35 998
SP 15:00:00 TS -19.01 149.50 42 998 42 42 32 998
SP 17:00:00 TS -19.04 149.67 44 999 44 44 30 998
SP 18:00:00 TS -19.06 149.75 45 999 45 43 30 999
SP 21:00:00 TS -19.12 149.98 42 999 42 41 30 999
SP 23:00:00 TS -19.17 150.15 1000 40 1000 40 40 30 999
SP 1964-12-08 00:00:00 TS -19.20 150.24 40 1000 40 39 30 1000
SP 03:00:00 TS -19.29 150.56 37 1000 37 38 27 1000
SP 05:00:00 TS -19.35 150.79 35 1001 35 37 25 1000
SP 06:00:00 TS -19.39 150.91 35 1001 35 36 25 1001
SP 09:00:00 TS -19.50 151.26 32 1001 32 33 25 1001
SP 11:00:00 TS -19.58 151.49 1002 30 1002 30 31 25 1001
SP 12:00:00 TS -19.63 151.61 30 1002 30 30 25 1002
SP 15:00:00 TS -19.76 151.96 1002 27 25 1002
SP 17:00:00 TS -19.84 152.17 1003 25 25 1002
SP 18:00:00 TS -19.90 152.26 1003 25 1003
SP 21:00:00 TS -19.96 152.55 1003 22 1003
SP 23:00:00 TS -19.99 152.73 1004 1004 20 1003
SP 1964-12-09 00:00:00 TS -20.00 152.80 20 1004

Source Information

Agency Information
USA bsh041965.txt
TOKYO
CMA
HKO
NEWDELHI
REUNION
BOM IDCKMSTM0S.csv:Line=4109:FLORA
NADI
WELLINGTON
DS824 s_hem.dat:941:04S
TD9636 cons_worldwide_trop_cyclone_18710101-19891231-006:Line=7062
TD9635
NEUMANN tracks.sh:Storm=119:FLORA:BSH0465:BM338
MLC

All available IBTrACS Data

SEASON BASIN SUBBASIN ISO_TIME_________ NATURE LAT LON WMO PRES WMO AGENCY DIST2LAND LANDFALL IFLAG USA AGENCY USA ATCF_ID USA LAT USA LON USA WIND USA SSHS BOM LAT BOM LON BOM PRES BOM PRES_METHOD DS824 LAT DS824 LON DS824 STAGE DS824 WIND TD9636 LAT TD9636 LON TD9636 STAGE TD9636 WIND NEUMANN LAT NEUMANN LON NEUMANN CLASS NEUMANN WIND NEUMANN PRES STORM SPEED STORM DIR
Year degrees north degrees east mb km km degrees north degrees east kts 1 degrees north degrees east mb degrees north degrees east kts degrees north degrees east kts degrees north degrees east kts mb kts degrees
1965 SI WA 1964-11-30 17:00:00 NR -10.30 134.70 194 179 __________O___ -1 -10.30 134.70 1 5 7 223
1965 SI WA 18:00:00 TS -10.38 134.62 179 154 O________OP___ jtwc_sh SH041965 -10.40 134.60 5 -1 -10.40 134.60 TC 5 -10.36 134.64 1 6 6 218
1965 SI WA 21:00:00 TS -10.59 134.47 154 134 P________PP___ SH041965 -10.62 134.46 12 -1 -10.62 134.46 TC 12 -10.56 134.47 1 11 5 217
1965 SI WA 23:30:00 TS -10.74 134.34 1002 bom 134 124 P_____O__PP___ SH041965 -10.77 134.33 18 -1 -10.70 134.50 1002 -10.77 134.33 TC 18 -10.71 134.33 1 15 4 217
1965 SI WA 1964-12-01 00:00:00 TS -10.76 134.34 124 109 O_____P__OP_O_ jtwc_sh SH041965 -10.80 134.30 20 -1 -10.71 134.42 1002 -10.80 134.30 TC 20 -10.74 134.30 1 16 -10.70 134.50 TC 25 1002 4 235
1965 SI WA 02:30:00 TS -10.86 134.17 1002 bom 109 105 P_____O__PP_P_ SH041965 -10.90 134.14 22 -1 -10.80 134.10 1002 -10.90 134.14 TC 22 -10.88 134.15 1 20 -10.83 134.28 TC 25 1002 5 238
1965 SI WA 03:00:00 TS -10.88 134.14 105 92 P_____P__PP_P_ SH041965 -10.92 134.11 22 -1 -10.83 134.07 1002 -10.92 134.11 TC 22 -10.90 134.12 1 21 -10.86 134.24 TC 25 1002 4 234
1965 SI WA 05:00:00 TS -10.97 134.02 92 92 P_____P__PO_P_ SH041965 -10.97 133.97 24 -1 -10.97 134.01 1002 -10.97 133.97 TC 24 -11.00 134.00 1 25 -10.96 134.07 TC 25 1002 4 234
1965 SI WA 05:30:00 TS -10.99 133.99 1002 bom 92 92 P_____O__PP_P_ SH041965 -10.99 133.93 24 -1 -11.00 134.00 1002 -10.99 133.93 TC 24 -11.02 133.97 1 25 -10.98 134.04 TC 25 1002 5 239
1965 SI WA 06:00:00 TS -11.01 133.95 92 78 O_____P__OP_O_ jtwc_sh SH041965 -11.00 133.90 25 -1 -11.02 133.97 1002 -11.00 133.90 TC 25 -11.04 133.94 1 25 -11.00 134.00 TC 25 1002 5 241
1965 SI WA 08:30:00 TS -11.10 133.78 1002 bom 78 78 P_____O__PP_P_ SH041965 -11.08 133.73 27 -1 -11.10 133.80 1002 -11.08 133.73 TC 27 -11.14 133.78 1 26 -11.10 133.83 TC 25 1001 4 241
1965 SI WA 09:00:00 TS -11.12 133.75 78 67 P_____P__PP_P_ SH041965 -11.10 133.70 27 -1 -11.12 133.77 1001 -11.10 133.70 TC 27 -11.16 133.75 1 26 -11.11 133.80 TC 25 1001 4 244
1965 SI WA 11:30:00 TS -11.20 133.59 1001 bom 68 68 P_____O__PP_P_ SH041965 -11.18 133.53 29 -1 -11.20 133.60 1001 -11.18 133.53 TC 29 -11.24 133.58 1 28 -11.19 133.64 TC 25 1001 5 245
1965 SI WA 12:00:00 TS -11.21 133.54 62 39 O_____P__OP_O_ jtwc_sh SH041965 -11.20 133.50 30 -1 -11.22 133.52 1000 -11.20 133.50 TC 30 -11.25 133.55 1 28 -11.20 133.60 TC 25 1001 5 252
1965 SI WA 14:30:00 TS -11.28 133.32 1000 bom 39 39 P_____O__PP_P_ SH041965 -11.28 133.33 30 -1 -11.30 133.10 1000 -11.28 133.33 TC 30 -11.33 133.38 1 29 -11.24 133.39 TC 27 1000 5 253
1965 SI WA 15:00:00 TS -11.29 133.29 39 31 P_____P__PP_P_ SH041965 -11.30 133.30 30 -1 -11.30 133.08 1000 -11.30 133.30 TC 30 -11.34 133.34 1 29 -11.25 133.35 TC 27 1000 4 251
1965 SI WA 17:00:00 TS -11.33 133.17 31 24 P_____P__PO_P_ SH041965 -11.37 133.17 30 -1 -11.30 133.10 1000 -11.37 133.17 TC 30 -11.40 133.20 1 31 -11.28 133.18 TC 29 1000 4 250
1965 SI WA 17:30:00 TS -11.34 133.13 1000 bom 24 15 P_____O__PP_P_ SH041965 -11.38 133.13 30 -1 -11.30 133.10 1000 -11.38 133.13 TC 30 -11.42 133.16 1 30 -11.29 133.14 TC 29 1000 4 248
1965 SI WA 18:00:00 TS -11.36 133.10 15 0 O_____P__OP_O_ jtwc_sh SH041965 -11.40 133.10 30 -1 -11.31 133.08 1000 -11.40 133.10 TC 30 -11.43 133.12 1 30 -11.30 133.10 TC 30 1000 4 245
1965 SI WA 20:30:00 TS -11.44 132.93 1000 bom 0 0 P_____O__PP_P_ SH041965 -11.48 132.94 27 -1 -11.40 132.90 1000 -11.48 132.94 TC 27 -11.51 132.93 1 29 -11.37 132.93 TC 30 1000 4 245
1965 SI WA 21:00:00 TS -11.45 132.90 0 0 P_____P__PP_P_ SH041965 -11.50 132.91 27 -1 -11.42 132.87 1000 -11.50 132.91 TC 27 -11.53 132.89 1 29 -11.38 132.90 TC 30 1000 5 243
1965 SI WA 23:30:00 TS -11.54 132.72 1000 bom 0 0 P_____O__PP_P_ SH041965 -11.58 132.74 25 -1 -11.50 132.70 1000 -11.58 132.74 TC 25 -11.61 132.70 1 27 -11.48 132.74 TC 30 1000 5 243
1965 SI WA 1964-12-02 00:00:00 TS -11.56 132.69 0 0 O_____P__OP_O_ jtwc_sh SH041965 -11.60 132.70 25 -1 -11.51 132.67 1000 -11.60 132.70 TC 25 -11.63 132.66 1 27 -11.50 132.70 TC 30 1000 5 245
1965 SI WA 02:30:00 TS -11.65 132.49 1000 bom 10 10 P_____O__PP_P_ SH041965 -11.68 132.49 25 -1 -11.60 132.50 1000 -11.68 132.49 TC 25 -11.71 132.47 1 26 -11.62 132.48 TC 32 999 5 245
1965 SI WA 03:00:00 TS -11.67 132.44 24 24 P_____P__PP_P_ SH041965 -11.69 132.44 25 -1 -11.63 132.45 999 -11.69 132.44 TC 25 -11.73 132.44 1 26 -11.64 132.44 TC 32 999 6 241
1965 SI WA 05:00:00 TS -11.76 132.27 32 32 P_____P__PO_P_ SH041965 -11.76 132.27 25 -1 -11.76 132.24 998 -11.76 132.27 TC 25 -11.80 132.30 1 25 -11.75 132.27 TC 34 998 6 240
1965 SI WA 05:30:00 TS -11.79 132.23 998 bom 33 33 P_____O__PP_P_ SH041965 -11.78 132.24 25 -1 -11.80 132.20 998 -11.78 132.24 TC 25 -11.82 132.26 1 25 -11.77 132.23 TC 34 998 5 233
1965 SI WA 06:00:00 TS -11.81 132.20 33 33 O_____P__OP_O_ jtwc_sh SH041965 -11.80 132.20 25 -1 -11.84 132.17 997 -11.80 132.20 TC 25 -11.83 132.23 1 25 -11.80 132.20 TC 35 998 4 229
1965 SI WA 08:30:00 TS -11.93 132.06 997 bom 44 44 P_____O__PP_P_ SH041965 -11.92 132.05 25 -1 -12.00 132.10 997 -11.92 132.05 TC 25 -11.91 132.05 1 25 -11.92 132.11 TC 37 996 4 228
1965 SI WA 09:00:00 TS -11.95 132.04 33 22 P_____P__PP_P_ SH041965 -11.94 132.03 25 -1 -12.02 132.09 996 -11.94 132.03 TC 25 -11.93 132.02 1 25 -11.94 132.09 TC 37 996 4 224
1965 SI WA 11:30:00 TS -12.07 131.93 995 bom 22 22 P_____O__PP_P_ SH041965 -12.07 131.92 25 -1 -12.10 132.00 995 -12.07 131.92 TC 25 -12.02 131.88 1 25 -12.07 132.02 TC 39 995 4 226
1965 SI WA 12:00:00 TS -12.09 131.90 22 22 O_____P__OP_O_ jtwc_sh SH041965 -12.10 131.90 25 -1 -12.12 131.93 995 -12.10 131.90 TC 25 -12.04 131.85 1 25 -12.10 132.00 TC 40 995 5 229
1965 SI WA 13:00:00 TS -12.15 131.83 995 bom 22 11 P_____O__PP_P_ SH041965 -12.14 131.85 25 -1 -12.20 131.80 995 -12.14 131.85 TC 25 -12.08 131.80 1 25 -12.16 131.93 TC 39 995 5 218
1965 SI WA 14:30:00 TS -12.24 131.77 996 bom 11 0 P_____O__PP_P_ SH041965 -12.21 131.79 25 -1 -12.40 131.80 996 -12.21 131.79 TC 25 -12.15 131.75 1 25 -12.25 131.82 TC 37 995 4 212
1965 SI WA 15:00:00 TS -12.27 131.75 0 0 P_____P__PP_P_ SH041965 -12.23 131.77 25 -1 -12.44 131.78 996 -12.23 131.77 TC 25 -12.18 131.74 1 25 -12.28 131.79 TC 37 996 4 214
1965 SI WA 17:00:00 TS -12.38 131.67 0 0 P_____P__PO_P_ SH041965 -12.33 131.71 25 -1 -12.48 131.63 996 -12.33 131.71 TC 25 -12.30 131.70 1 25 -12.42 131.65 TC 35 996 4 213
1965 SI WA 17:30:00 TS -12.41 131.66 997 bom 0 0 P_____O__PP_P_ SH041965 -12.36 131.71 25 -1 -12.50 131.60 997 -12.36 131.71 TC 25 -12.34 131.69 1 24 -12.46 131.62 TC 35 996 5 0
1965 SI WA 18:00:00 TS -12.45 131.65 0 0 O_____P__OP_O_ jtwc_sh SH041965 -12.40 131.70 25 -1 -12.54 131.59 997 -12.40 131.70 TC 25 -12.38 131.69 1 24 -12.50 131.60 TC 35 997 6 190
1965 SI WA 20:30:00 TS -12.70 131.63 998 bom 0 0 P_____O__PP_P_ SH041965 -12.64 131.70 22 -1 -12.80 131.60 998 -12.64 131.70 TC 22 -12.61 131.70 1 22 -12.75 131.52 TC 35 997 6 185
1965 SI WA 21:00:00 TS -12.75 131.63 0 0 P_____P__PP_P_ SH041965 -12.69 131.71 22 -1 -12.86 131.59 998 -12.69 131.71 TC 22 -12.66 131.71 1 21 -12.80 131.52 TC 35 997 6 170
1965 SI WA 23:30:00 TS -13.01 131.68 998 bom 0 0 P_____O__PP_P_ SH041965 -12.95 131.78 20 -1 -13.10 131.60 998 -12.95 131.78 TC 20 -12.92 131.78 1 19 -13.05 131.57 TC 35 997 6 166
1965 SI WA 1964-12-03 00:00:00 TS -13.05 131.70 0 0 O_____P__OP_O_ jtwc_sh SH041965 -13.00 131.80 20 -1 -13.12 131.61 998 -13.00 131.80 TC 20 -12.97 131.80 1 19 -13.10 131.60 TC 35 998 6 139
1965 SI WA 02:30:00 TS -13.23 131.89 998 bom 0 0 P_____O__PP_P_ SH041965 -13.20 131.94 17 -1 -13.20 131.80 998 -13.20 131.94 TC 17 -13.20 131.93 1 17 -13.30 131.86 TC 35 998 6 134
1965 SI WA 03:00:00 TS -13.27 131.94 0 0 P_____P__PP_P_ SH041965 -13.23 131.97 17 -1 -13.24 131.87 998 -13.23 131.97 TC 17 -13.25 131.96 1 16 -13.33 131.92 TC 35 998 8 124
1965 SI WA 05:00:00 TS -13.41 132.15 0 0 P_____P__PO_P_ SH041965 -13.35 132.12 15 -1 -13.46 132.23 998 -13.35 132.12 TC 15 -13.40 132.10 1 15 -13.45 132.18 TC 35 998 8 123
1965 SI WA 05:30:00 TS -13.44 132.21 998 bom 0 0 P_____O__PP_P_ SH041965 -13.38 132.16 15 -1 -13.50 132.30 998 -13.38 132.16 TC 15 -13.43 132.13 1 15 -13.48 132.24 TC 35 998 7 119
1965 SI WA 06:00:00 TS -13.46 132.25 0 0 O_____P__OP_O_ jtwc_sh SH041965 -13.40 132.20 15 -1 -13.53 132.35 998 -13.40 132.20 TC 15 -13.45 132.17 1 15 -13.50 132.30 TC 35 998 5 119
1965 SI WA 08:30:00 TS -13.56 132.43 998 bom 0 0 P_____O__PP_P_ SH041965 -13.51 132.39 15 -1 -13.60 132.50 998 -13.51 132.39 TC 15 -13.54 132.37 1 16 -13.61 132.48 TC 35 998 5 118
1965 SI WA 09:00:00 TS -13.58 132.47 0 0 P_____P__PP_P_ SH041965 -13.52 132.43 15 -1 -13.62 132.53 998 -13.52 132.43 TC 15 -13.55 132.41 1 16 -13.62 132.52 TC 35 998 5 110
1965 SI WA 11:30:00 TS -13.64 132.66 998 bom 0 0 P_____O__PP_P_ SH041965 -13.59 132.65 15 -1 -13.70 132.70 998 -13.59 132.65 TC 15 -13.60 132.65 1 17 -13.69 132.67 TC 35 998 5 109
1965 SI WA 12:00:00 TS -13.66 132.71 0 0 O_____P__OP_O_ jtwc_sh SH041965 -13.60 132.70 15 -1 -13.72 132.75 998 -13.60 132.70 TC 15 -13.61 132.71 1 17 -13.70 132.70 TC 35 998 6 104
1965 SI WA 14:30:00 TS -13.71 132.94 998 bom 0 0 P_____O__PP_P_ SH041965 -13.64 132.97 17 -1 -13.80 133.00 998 -13.64 132.97 TC 17 -13.65 132.99 1 18 -13.76 132.86 TC 35 998 6 103
1965 SI WA 15:00:00 TS -13.72 132.99 0 0 P_____P__PP_P_ SH041965 -13.65 133.03 17 -1 -13.81 133.03 998 -13.65 133.03 TC 17 -13.66 133.05 1 18 -13.76 132.90 TC 35 998 6 98
1965 SI WA 17:00:00 TS -13.74 133.19 0 0 P_____P__PO_P_ SH041965 -13.68 133.27 19 -1 -13.80 133.15 998 -13.68 133.27 TC 19 -13.70 133.30 1 19 -13.79 133.08 TC 35 998 6 97
1965 SI WA 17:30:00 TS -13.75 133.25 998 bom 0 0 P_____O__PP_P_ SH041965 -13.69 133.34 19 -1 -13.80 133.20 998 -13.69 133.34 TC 19 -13.71 133.36 1 19 -13.80 133.14 TC 35 998 7 97
1965 SI WA 18:00:00 TS -13.75 133.32 0 0 O_____P__OP_O_ jtwc_sh SH041965 -13.70 133.40 20 -1 -13.80 133.28 998 -13.70 133.40 TC 20 -13.73 133.42 1 20 -13.80 133.20 TC 35 998 9 94
1965 SI WA 20:30:00 TS -13.78 133.71 998 bom 0 0 P_____O__PP_P_ SH041965 -13.76 133.71 24 -1 -13.80 133.80 998 -13.76 133.71 TC 24 -13.80 133.73 1 24 -13.78 133.64 TC 35 998 9 94
1965 SI WA 21:00:00 TS -13.78 133.79 0 0 P_____P__PP_P_ SH041965 -13.78 133.78 25 -1 -13.79 133.89 998 -13.78 133.78 TC 25 -13.82 133.80 1 24 -13.77 133.74 TC 35 998 9 97
1965 SI WA 23:30:00 TS -13.84 134.19 998 bom 0 0 P_____O__PP_P_ SH041965 -13.88 134.13 29 -1 -13.80 134.30 998 -13.88 134.13 TC 29 -13.91 134.15 1 28 -13.78 134.21 TC 35 998 9 99
1965 SI WA 1964-12-04 00:00:00 TS -13.86 134.27 0 0 O_____P__OP_O_ jtwc_sh SH041965 -13.90 134.20 30 -1 -13.82 134.39 998 -13.90 134.20 TC 30 -13.93 134.22 1 29 -13.80 134.30 TC 35 998 9 112
1965 SI WA 02:30:00 TS -14.01 134.63 998 bom 0 0 P_____O__PP_P_ SH041965 -14.04 134.60 32 -1 -14.00 134.80 998 -14.04 134.60 TC 32 -14.05 134.60 1 33 -13.96 134.59 TC 35 998 9 114
1965 SI WA 03:00:00 TS -14.05 134.70 0 0 P_____P__PP_P_ SH041965 -14.08 134.69 32 -1 -14.04 134.84 998 -14.08 134.69 TC 32 -14.08 134.68 1 33 -14.00 134.64 TC 35 998 9 123
1965 SI WA 05:00:00 TS -14.21 134.96 0 0 P_____P__PO_P_ SH041965 -14.22 135.03 34 0 -14.25 134.95 998 -14.22 135.03 TC 34 -14.20 135.00 2 37 -14.20 134.87 TC 35 998 9 123
1965 SP EA 05:30:00 TS -14.26 135.03 998 bom 0 0 P_____O__PP_P_ SH041965 -14.26 135.11 34 0 -14.30 135.00 998 -14.26 135.11 TC 34 -14.24 135.08 2 36 -14.25 134.93 TC 35 998 10 122
1965 SP EA 06:00:00 TS -14.30 135.11 0 0 O_____P__OP_O_ jtwc_sh SH041965 -14.30 135.20 35 0 -14.35 135.08 997 -14.30 135.20 TC 35 -14.27 135.16 2 36 -14.30 135.00 TC 35 998 11 118
1965 SP EA 08:30:00 TS -14.53 135.54 996 bom 0 0 P_____O__PP_P_ SH041965 -14.49 135.60 35 0 -14.60 135.60 996 -14.49 135.60 TC 35 -14.48 135.57 2 35 -14.55 135.46 TC 37 996 11 118
1965 SP EA 09:00:00 TS -14.57 135.63 10 10 P_____P__PP_P_ SH041965 -14.53 135.69 35 0 -14.65 135.69 995 -14.53 135.69 TC 35 -14.53 135.66 2 35 -14.60 135.56 TC 37 996 12 118
1965 SP EA 12:00:00 TS -14.86 136.18 49 49 O_____P__OP_O_ jtwc_sh SH041965 -14.80 136.20 35 0 -14.96 136.24 994 -14.80 136.20 TC 35 -14.82 136.20 2 33 -14.90 136.20 TC 40 995 12 118
1965 SP EA 14:30:00 TS -15.11 136.67 994 bom 63 63 P_____O__PP_P_ SH041965 -15.06 136.66 32 -1 -15.20 136.70 994 -15.06 136.66 TC 32 -15.06 136.69 2 32 -15.12 136.70 TC 40 994 13 117
1965 SP EA 15:00:00 TS -15.15 136.77 64 64 P_____P__PP_P_ SH041965 -15.11 136.76 32 -1 -15.25 136.80 993 -15.11 136.76 TC 32 -15.11 136.79 2 32 -15.16 136.80 TC 40 994 13 115
1965 SP EA 17:00:00 TS -15.34 137.19 77 67 P_____P__PO_P_ SH041965 -15.31 137.18 30 -1 -15.43 137.22 993 -15.31 137.18 TC 30 -15.30 137.20 1 31 -15.32 137.20 TC 40 994 14 114
1965 SP EA 18:00:00 TS -15.43 137.41 70 64 O_____P__OP_O_ jtwc_sh SH041965 -15.40 137.40 30 -1 -15.52 137.44 993 -15.40 137.40 TC 30 -15.38 137.42 1 31 -15.40 137.40 TC 40 994 14 110
1965 SP EA 21:00:00 TS -15.67 138.10 70 70 P_____P__PP_P_ SH041965 -15.61 138.14 32 -1 -15.76 138.13 993 -15.61 138.14 TC 32 -15.62 138.13 1 33 -15.66 137.99 TC 40 993 14 109
1965 SP EA 23:00:00 TS -15.82 138.58 993 bom 106 101 P_____O__PP_P_ SH041965 -15.73 138.65 34 0 -15.90 138.60 993 -15.73 138.65 TC 34 -15.77 138.61 1 35 -15.83 138.39 TC 40 993 14 108
1965 SP EA 1964-12-05 00:00:00 TS -15.89 138.82 102 99 O_____P__OP_O_ jtwc_sh SH041965 -15.80 138.90 35 0 -15.98 138.84 992 -15.80 138.90 TC 35 -15.85 138.86 1 36 -15.90 138.60 TC 40 993 14 107
1965 SP EA 03:00:00 TS -16.09 139.52 104 104 P_____P__PP_P_ SH041965 -16.05 139.58 37 0 -16.21 139.58 992 -16.05 139.58 TC 37 -16.06 139.56 1 38 -16.06 139.29 TC 40 993 14 107
1965 SP EA 05:00:00 TS -16.22 139.97 123 115 P_____P__PO_P_ SH041965 -16.22 140.00 39 0 -16.33 140.07 992 -16.22 140.00 TC 39 -16.20 140.00 2 40 -16.16 139.76 TC 40 993 13 106
1965 SP EA 06:00:00 TS -16.28 140.19 115 53 O_____P__OP_O_ jtwc_sh SH041965 -16.30 140.20 40 0 -16.39 140.31 992 -16.30 140.20 TC 40 -16.24 140.20 2 42 -16.20 140.00 TC 40 993 13 104
1965 SP EA 09:00:00 TS -16.42 140.82 53 30 P_____P__PP_P_ SH041965 -16.48 140.77 52 0 -16.49 140.99 992 -16.48 140.77 TC 52 -16.37 140.75 2 51 -16.32 140.74 TC 42 992 12 104
1965 SP EA 10:00:00 TS -16.47 141.02 992 bom 30 10 P_____O__PP_P_ SH041965 -16.55 140.95 56 0 -16.50 141.20 992 -16.55 140.95 TC 56 -16.42 140.93 2 53 -16.37 140.97 TC 43 992 12 106
1965 SP EA 11:00:00 TS -16.53 141.21 992 bom 10 0 P_____O__PP_P_ SH041965 -16.62 141.13 60 0 -16.50 141.40 992 4 -16.62 141.13 TC 60 -16.49 141.10 2 56 -16.43 141.20 TC 44 992 11 110
1965 SP EA 12:00:00 TS -16.60 141.39 0 0 O_____P__OP_O_ jtwc_sh SH041965 -16.70 141.30 65 1 -16.53 141.57 992 -16.70 141.30 TC 65 -16.57 141.27 2 59 -16.50 141.40 TC 45 992 11 122
1965 SP EA 14:00:00 TS -16.82 141.70 994 bom 0 0 P_____O__PO_P_ SH041965 -16.95 141.64 61 0 -16.70 141.80 994 -16.95 141.64 TC 61 -16.80 141.60 3 65 -16.71 141.72 TC 43 993 11 131
1965 SP EA 15:00:00 TS -16.96 141.83 0 0 P_____P__PP_P_ SH041965 -17.08 141.80 60 0 -16.83 141.78 994 -17.08 141.80 TC 60 -16.97 141.77 3 61 -16.83 141.87 TC 42 993 11 137
1965 SP EA 16:00:00 TS -17.10 141.98 bom 0 0 P_____I__PP_P_ SH041965 -17.21 141.96 58 0 -17.00 141.90 994 -17.21 141.96 TC 58 -17.14 141.93 3 58 -16.96 142.00 TC 41 993 13 130
1965 SP EA 17:00:00 TS -17.24 142.17 995 bom 0 0 P_____O__PO_P_ SH041965 -17.32 142.13 56 0 -17.20 142.30 995 -17.32 142.13 TC 56 -17.30 142.10 2 55 -17.08 142.15 TC 40 994 13 125
1965 SP EA 18:00:00 TS -17.35 142.35 0 0 O_____P__OP_O_ jtwc_sh SH041965 -17.40 142.30 55 0 -17.37 142.51 995 -17.40 142.30 TC 55 -17.41 142.27 2 53 -17.20 142.30 TC 40 995 11 117
1965 SP EA 20:00:00 TS -17.48 142.68 996 bom 0 0 P_____O__PP_P_ SH041965 -17.44 142.66 49 0 -17.60 142.70 996 -17.44 142.66 TC 49 -17.55 142.60 2 49 -17.42 142.69 TC 38 995 11 109
1965 SP EA 21:00:00 TS -17.52 142.88 0 0 P_____P__PP_P_ SH041965 -17.44 142.84 47 0 -17.67 142.96 996 -17.44 142.84 TC 47 -17.58 142.78 2 47 -17.52 142.90 TC 37 995 12 97
1965 SP EA 23:00:00 TS -17.56 143.29 996 bom 0 0 P_____O__PP_P_ SH041965 -17.41 143.21 42 0 -17.70 143.50 996 -17.41 143.21 TC 42 -17.59 143.13 2 43 -17.66 143.31 TC 35 995 11 93
1965 SP EA 1964-12-06 00:00:00 TS -17.55 143.47 0 0 O_____P__OP_O_ jtwc_sh SH041965 -17.40 143.40 40 0 -17.65 143.63 996 -17.40 143.40 TC 40 -17.57 143.31 2 41 -17.70 143.50 TC 35 996 10 88
1965 SP EA 02:00:00 TS -17.54 143.80 998 bom 0 0 P_____O__PP_P_ SH041965 -17.44 143.73 36 0 -17.50 143.80 998 -17.44 143.73 TC 36 -17.53 143.69 2 37 -17.67 143.80 TC 35 996 9 88
1965 SP EA 03:00:00 TS -17.53 143.97 0 0 P_____P__PP_P_ SH041965 -17.47 143.91 35 0 -17.46 143.94 997 -17.47 143.91 TC 35 -17.51 143.88 2 35 -17.62 143.94 TC 35 996 10 90
1965 SP EA 05:00:00 TS -17.54 144.34 0 0 P_____P__PO_P_ SH041965 -17.55 144.28 31 -1 -17.42 144.30 997 -17.55 144.28 TC 31 -17.50 144.30 1 31 -17.53 144.23 TC 35 996 11 93
1965 SP EA 06:00:00 TS -17.57 144.56 0 0 O_____P__OP_O_ jtwc_sh SH041965 -17.60 144.50 30 -1 -17.43 144.52 996 -17.60 144.50 TC 30 -17.55 144.54 1 32 -17.50 144.40 TC 35 997 14 99
1965 SP EA 08:00:00 TS -17.65 145.05 996 bom 0 0 P_____O__PP_P_ SH041965 -17.72 145.05 33 -1 -17.50 145.00 996 -17.72 145.05 TC 33 -17.67 145.06 1 34 -17.52 144.84 TC 35 996 15 100
1965 SP EA 09:00:00 TS -17.70 145.31 0 0 P_____P__PP_P_ SH041965 -17.79 145.34 35 0 -17.56 145.27 996 -17.79 145.34 TC 35 -17.74 145.33 1 35 -17.56 145.08 TC 35 996 15 103
1965 SP EA 12:00:00 TS -17.88 146.09 996 bom 10 10 O_____O__OP_O_ jtwc_sh SH041965 -18.00 146.20 40 0 -17.80 146.10 996 -18.00 146.20 TC 40 -17.96 146.13 1 38 -17.70 145.80 TC 35 996 14 105
1965 SP EA 15:00:00 TS -18.06 146.74 69 69 P_____P__PP_P_ SH041965 -18.16 146.88 42 0 -18.01 146.75 996 -18.16 146.88 TC 42 -18.17 146.88 1 41 -17.88 146.44 TC 35 996 12 107
1965 SP EA 17:00:00 TS -18.17 147.11 95 95 P_____P__PO_P_ SH041965 -18.25 147.24 44 0 -18.15 147.10 996 -18.25 147.24 TC 44 -18.30 147.30 2 44 -18.03 146.82 TC 35 996 11 109
1965 SP EA 18:00:00 TS -18.23 147.28 114 113 O_____P__OP_O_ jtwc_sh SH041965 -18.30 147.40 45 0 -18.21 147.25 996 -18.30 147.40 TC 45 -18.35 147.47 2 43 -18.10 147.00 TC 35 996 9 112
1965 SP EA 21:00:00 TS -18.40 147.70 116 109 P_____P__PP_P_ SH041965 -18.46 147.80 42 0 -18.39 147.66 996 -18.46 147.80 TC 42 -18.47 147.88 2 41 -18.31 147.49 TC 35 996 8 114
1965 SP EA 23:00:00 TS -18.51 147.94 996 bom 113 113 P_____O__PP_P_ SH041965 -18.56 148.00 40 0 -18.50 147.90 996 -18.56 148.00 TC 40 -18.54 148.09 2 40 -18.44 147.77 TC 35 996 7 114
1965 SP EA 1964-12-07 00:00:00 TS -18.55 148.05 115 115 O_____P__OP_O_ jtwc_sh SH041965 -18.60 148.10 40 0 -18.55 148.04 996 -18.60 148.10 TC 40 -18.57 148.19 2 39 -18.50 147.90 TC 35 996 7 110
1965 SP EA 03:00:00 TS -18.66 148.39 130 130 P_____P__PP_P_ SH041965 -18.66 148.42 37 0 -18.70 148.41 996 -18.66 148.42 TC 37 -18.65 148.44 2 38 -18.66 148.27 TC 35 996 6 109
1965 SP EA 05:00:00 TS -18.73 148.59 146 140 P_____P__PO_P_ SH041965 -18.68 148.61 35 0 -18.79 148.63 997 -18.68 148.61 TC 35 -18.70 148.60 2 37 -18.76 148.49 TC 35 996 6 108
1965 SP EA 06:00:00 TS -18.76 148.69 140 138 O_____P__OP_O_ jtwc_sh SH041965 -18.70 148.70 35 0 -18.83 148.74 997 -18.70 148.70 TC 35 -18.73 148.70 2 37 -18.80 148.60 TC 35 997 6 110
1965 SP EA 09:00:00 TS -18.86 148.98 143 143 P_____P__PP_P_ SH041965 -18.80 148.95 37 0 -18.94 149.02 997 -18.80 148.95 TC 37 -18.81 148.98 2 39 -18.91 148.92 TC 35 997 6 111
1965 SP EA 11:00:00 TS -18.92 149.15 998 bom 155 155 P_____O__PP_P_ SH041965 -18.87 149.11 39 0 -19.00 149.20 998 -18.87 149.11 TC 39 -18.86 149.17 2 40 -18.97 149.11 TC 35 997 5 110
1965 SP EA 12:00:00 TS -18.95 149.24 146 146 O_____P__OP_O_ jtwc_sh SH041965 -18.90 149.20 40 0 -19.02 149.28 998 -18.90 149.20 TC 40 -18.88 149.26 2 41 -19.00 149.20 TC 35 998 5 104
1965 SP EA 15:00:00 TS -19.01 149.50 162 162 P_____P__PP_P_ SH041965 -18.95 149.50 42 0 -19.07 149.50 998 -18.95 149.50 TC 42 -18.95 149.52 2 42 -19.06 149.47 TC 32 998 5 102
1965 SP EA 17:00:00 TS -19.04 149.67 173 163 P_____P__PO_P_ SH041965 -18.98 149.70 44 0 -19.10 149.64 999 -18.98 149.70 TC 44 -19.00 149.70 2 44 -19.09 149.63 TC 30 998 5 102
1965 SP EA 18:00:00 TS -19.06 149.75 170 170 O_____P__OP_O_ jtwc_sh SH041965 -19.00 149.80 45 0 -19.11 149.70 999 -19.00 149.80 TC 45 -19.02 149.79 2 43 -19.10 149.70 TC 30 999 5 106
1965 SP EA 21:00:00 TS -19.12 149.98 183 183 P_____P__PP_P_ SH041965 -19.10 150.05 42 0 -19.16 149.93 999 -19.10 150.05 TC 42 -19.10 150.06 2 41 -19.13 149.88 TC 30 999 5 107
1965 SP EA 23:00:00 TS -19.17 150.15 1000 bom 183 183 P_____O__PP_P_ SH041965 -19.17 150.21 40 0 -19.20 150.10 1000 -19.17 150.21 TC 40 -19.15 150.24 2 40 -19.17 150.01 TC 30 999 5 108
1965 SP EA 1964-12-08 00:00:00 TS -19.20 150.24 191 191 O_____P__OP_O_ jtwc_sh SH041965 -19.20 150.30 40 0 -19.23 150.21 1000 -19.20 150.30 TC 40 -19.17 150.33 2 39 -19.20 150.10 TC 30 1000 6 107
1965 SP EA 03:00:00 TS -19.29 150.56 219 219 P_____P__PP_P_ SH041965 -19.25 150.59 37 0 -19.35 150.57 1000 -19.25 150.59 TC 37 -19.25 150.61 2 38 -19.34 150.48 TC 27 1000 7 106
1965 SP EA 05:00:00 TS -19.35 150.79 232 232 P_____P__PO_P_ SH041965 -19.28 150.80 35 0 -19.44 150.83 1001 -19.28 150.80 TC 35 -19.30 150.80 2 37 -19.45 150.76 TC 25 1000 7 107
1965 SP EA 06:00:00 TS -19.39 150.91 241 241 O_____P__OP_O_ jtwc_sh SH041965 -19.30 150.90 35 0 -19.49 150.96 1001 -19.30 150.90 TC 35 -19.33 150.90 2 36 -19.50 150.90 TC 25 1001 7 108
1965 SP EA 09:00:00 TS -19.50 151.26 274 274 P_____P__PP_P_ SH041965 -19.39 151.20 32 -1 -19.62 151.35 1001 -19.39 151.20 TC 32 -19.40 151.21 2 33 -19.61 151.27 TC 25 1001 7 109
1965 SP EA 11:00:00 TS -19.58 151.49 1002 bom 289 289 P_____O__PP_P_ SH041965 -19.46 151.40 30 -1 -19.70 151.60 1002 -19.46 151.40 TC 30 -19.45 151.43 2 31 -19.67 151.49 TC 25 1001 7 112
1965 SP EA 12:00:00 TS -19.63 151.61 299 299 O_____P__OP_O_ jtwc_sh SH041965 -19.50 151.50 30 -1 -19.74 151.72 1002 -19.50 151.50 TC 30 -19.48 151.54 2 30 -19.70 151.60 TC 25 1002 7 113
1965 SP EA 15:00:00 TS -19.76 151.96 320 320 ______P___P_P_ SH041965 -1 -19.83 152.04 1002 TC -19.55 151.87 2 27 -19.81 151.91 TC 25 1002 7 112
1965 SP EA 17:00:00 TS -19.84 152.17 329 319 ______P___O_P_ SH041965 -1 -19.88 152.25 1003 TC -19.60 152.10 1 25 -19.87 152.10 TC 25 1002 6 115
1965 SP EA 18:00:00 TS -19.90 152.26 325 325 ______P_____O_ -1 -19.90 152.34 1003 1 -19.90 152.20 TC 25 1003 6 108
1965 SP EA 21:00:00 TS -19.96 152.55 326 326 ______P_____P_ -1 -19.96 152.62 1003 1 -19.96 152.50 TC 22 1003 5 102
1965 SP EA 23:00:00 TS -19.99 152.73 1004 bom 339 339 ______O_____P_ -1 -20.00 152.80 1004 1 -19.99 152.70 TC 20 1003 5 99
1965 SP EA 1964-12-09 00:00:00 TS -20.00 152.80 345 ____________O_ -1 1 -20.00 152.80 TC 20 1004 4 97